Time;durP1;ratioP1;P1;durP2;ratioP2;P2;SDS_P1;SDS_P2;PMS_P1;PMS_P2;Temp;Humidity;BMP_temperature;BMP_pressure;BME280_temperature;BME280_humidity;BME280_pressure;Samples;Min_cycle;Max_cycle;Signal;HPM_P1;HPM_P2
2022/10/07 00:01:35;;;;;;;35.23;16.00;;;11.40;99.90;;;;;;5118577;28;20215;-83
2022/10/07 00:04:00;;;;;;;68.07;16.07;;;11.40;99.90;;;;;;5118239;28;20182;-83
2022/10/07 00:06:26;;;;;;;58.43;15.97;;;11.30;99.90;;;;;;5119235;28;20278;-82
2022/10/07 00:08:53;;;;;;;36.43;17.13;;;11.30;99.90;;;;;;5117667;28;20199;-82
2022/10/07 00:11:21;;;;;;;32.50;17.03;;;11.30;99.90;;;;;;5117957;28;20233;-81
2022/10/07 00:13:51;;;;;;;27.07;16.93;;;11.30;99.90;;;;;;5119689;28;20254;-82
2022/10/07 00:16:23;;;;;;;26.07;15.63;;;11.40;99.90;;;;;;5119725;28;20184;-83
2022/10/07 00:18:50;;;;;;;27.53;16.73;;;11.40;99.90;;;;;;5117609;28;20216;-83
2022/10/07 00:21:17;;;;;;;31.77;16.80;;;11.40;99.90;;;;;;5117888;28;20172;-82
2022/10/07 00:23:44;;;;;;;24.07;15.90;;;11.40;99.90;;;;;;5118240;28;20179;-83
2022/10/07 00:26:12;;;;;;;21.10;15.47;;;11.40;99.90;;;;;;5118833;28;20530;-83
2022/10/07 00:28:38;;;;;;;21.37;15.87;;;11.50;99.90;;;;;;5117893;28;20207;-82
2022/10/07 00:31:24;;;;;;;21.10;15.20;;;11.50;99.90;;;;;;5119578;28;20167;-83
2022/10/07 00:33:51;;;;;;;23.07;15.50;;;11.50;99.90;;;;;;5117958;28;20701;-84
2022/10/07 06:44:52;;;;;;;34.43;17.77;;;12.10;99.90;;;;;;5075998;28;20546;-85
2022/10/07 06:47:19;;;;;;;29.03;18.33;;;12.10;99.90;;;;;;5074244;28;20292;-86
2022/10/07 06:49:44;;;;;;;30.87;17.53;;;12.10;99.90;;;;;;5072760;28;20176;-86
2022/10/07 06:52:11;;;;;;;29.53;18.40;;;12.00;99.90;;;;;;5073360;28;20180;-85
2022/10/07 06:54:36;;;;;;;23.70;16.13;;;12.10;99.90;;;;;;5071541;28;20181;-82
2022/10/07 06:57:02;;;;;;;21.17;15.07;;;12.00;99.90;;;;;;5070989;28;20732;-83
2022/10/07 06:59:28;;;;;;;19.53;13.63;;;12.00;99.90;;;;;;5071868;28;20208;-83
2022/10/07 07:01:54;;;;;;;20.17;14.00;;;12.00;99.90;;;;;;5073993;28;20177;-83
2022/10/07 07:16:20;;;;;;;21.97;14.07;;;12.20;99.90;;;;;;5097092;27;20283;-83
2022/10/07 07:18:56;;;;;;;23.70;14.40;;;12.20;99.90;;;;;;5056115;28;20260;-83
2022/10/07 07:21:24;;;;;;;23.00;13.37;;;12.20;99.90;;;;;;5054779;28;20181;-82
2022/10/07 07:32:07;;;;;;;22.87;14.50;;;12.20;99.90;;;;;;5136755;27;20273;-83
2022/10/07 07:34:35;;;;;;;21.83;14.53;;;12.20;99.90;;;;;;5116584;28;20183;-82
2022/10/07 07:37:01;;;;;;;20.00;13.40;;;12.30;99.90;;;;;;5129310;28;20203;-84
2022/10/07 07:48:32;;;;;;;17.60;11.93;;;12.10;99.90;;;;;;5161955;27;20795;-84
2022/10/07 07:50:57;;;;;;;17.17;11.53;;;12.10;99.90;;;;;;5138421;27;20212;-83
2022/10/07 07:53:23;;;;;;;16.93;11.97;;;12.00;99.90;;;;;;5156806;27;20181;-84
2022/10/07 07:55:55;;;;;;;16.47;12.43;;;12.10;99.90;;;;;;5157531;27;20295;-83
2022/10/07 07:58:23;;;;;;;16.17;13.07;;;12.10;99.90;;;;;;5157677;27;20177;-84
2022/10/07 08:01:04;;;;;;;18.37;12.97;;;12.10;99.90;;;;;;5164305;27;20174;-83
2022/10/07 08:03:31;;;;;;;15.37;11.80;;;12.20;99.90;;;;;;5155466;27;20757;-83
2022/10/07 08:08:11;;;;;;;18.30;11.67;;;12.10;99.90;;;;;;5094268;28;20535;-79
2022/10/07 08:10:39;;;;;;;16.87;12.47;;;12.10;99.90;;;;;;5093481;28;20210;-81
2022/10/07 08:13:04;;;;;;;15.17;11.80;;;12.10;99.90;;;;;;5094688;28;20153;-82
2022/10/07 08:15:30;;;;;;;16.47;11.67;;;12.20;99.90;;;;;;5078604;28;20185;-82
2022/10/07 08:20:10;;;;;;;15.80;11.57;;;12.20;99.90;;;;;;5135187;27;20275;-83
2022/10/07 08:22:35;;;;;;;15.03;11.07;;;12.20;99.90;;;;;;5115539;28;20266;-82
2022/10/07 08:27:10;;;;;;;13.90;10.77;;;12.30;99.90;;;;;;5077046;28;20313;-82
2022/10/07 08:29:36;;;;;;;14.80;10.43;;;12.40;99.90;;;;;;5072413;28;20220;-82
2022/10/07 08:32:02;;;;;;;14.60;11.17;;;12.40;99.90;;;;;;5072730;28;20177;-82
2022/10/07 08:34:28;;;;;;;15.17;10.90;;;12.40;99.90;;;;;;5072746;28;20543;-81
2022/10/07 08:36:55;;;;;;;18.43;11.20;;;12.50;99.90;;;;;;5073867;28;20560;-82
2022/10/07 08:39:21;;;;;;;16.53;10.57;;;12.50;99.90;;;;;;5071456;28;20173;-81
2022/10/07 08:41:55;;;;;;;15.53;11.07;;;12.50;99.90;;;;;;5070962;28;20204;-83
2022/10/07 08:46:14;;;;;;;15.70;11.70;;;12.70;99.90;;;;;;5073520;28;21069;-84
2022/10/07 08:48:44;;;;;;;24.90;15.20;;;12.80;99.90;;;;;;5073796;28;20177;-83
2022/10/07 08:51:23;;;;;;;27.33;17.33;;;12.90;99.90;;;;;;5075036;28;20179;-83
2022/10/07 08:53:52;;;;;;;17.37;12.27;;;12.90;99.90;;;;;;5074768;28;20179;-82
2022/10/07 08:56:21;;;;;;;18.53;13.87;;;12.90;99.90;;;;;;5074702;28;20193;-83
2022/10/07 08:59:05;;;;;;;19.50;13.00;;;12.90;99.90;;;;;;5074064;28;20175;-83
2022/10/07 09:03:37;;;;;;;54.27;30.03;;;12.80;99.90;;;;;;5073570;28;21039;-82
2022/10/07 09:06:10;;;;;;;19.60;14.27;;;12.80;99.90;;;;;;5072024;28;20208;-82
2022/10/07 09:08:40;;;;;;;24.37;14.97;;;13.00;99.90;;;;;;5072540;28;20244;-82
2022/10/07 09:11:14;;;;;;;16.43;12.10;;;13.00;99.90;;;;;;5073091;28;20246;-83
2022/10/07 09:13:46;;;;;;;15.63;10.93;;;13.00;99.90;;;;;;5071442;28;20205;-83
2022/10/07 09:18:32;;;;;;;16.57;11.90;;;13.20;99.90;;;;;;5073754;28;21080;-82
2022/10/07 09:20:58;;;;;;;14.43;10.73;;;13.20;99.90;;;;;;5073624;28;20177;-82
2022/10/07 09:23:32;;;;;;;17.53;12.00;;;13.20;99.90;;;;;;5073886;28;20263;-83
2022/10/07 09:25:58;;;;;;;14.07;10.90;;;13.20;99.90;;;;;;5072145;28;20236;-82
2022/10/07 09:28:29;;;;;;;18.77;11.87;;;13.20;99.90;;;;;;5072710;28;20244;-82
2022/10/07 09:30:58;;;;;;;17.67;12.27;;;13.30;99.90;;;;;;5074408;28;20222;-83
2022/10/07 09:33:24;;;;;;;19.97;13.17;;;13.30;99.90;;;;;;5072799;28;20230;-82
2022/10/07 09:36:08;;;;;;;15.97;12.27;;;13.30;99.90;;;;;;5072420;28;20246;-82
2022/10/07 09:38:35;;;;;;;15.20;11.67;;;13.30;99.90;;;;;;5073201;28;20161;-83
2022/10/07 09:41:37;;;;;;;15.70;11.23;;;13.30;99.90;;;;;;5071583;28;20174;-83
2022/10/07 09:44:26;;;;;;;13.13;11.13;;;13.30;99.90;;;;;;5073004;28;20153;-81
2022/10/07 09:46:56;;;;;;;15.93;11.60;;;13.30;99.90;;;;;;5072845;28;20208;-82
2022/10/07 09:49:27;;;;;;;13.80;11.03;;;13.40;99.90;;;;;;5071390;28;20177;-82
2022/10/07 09:52:15;;;;;;;13.57;11.07;;;13.40;99.90;;;;;;5072919;28;20158;-84
2022/10/07 09:54:44;;;;;;;17.20;11.37;;;13.40;99.90;;;;;;5071329;28;20162;-83
2022/10/07 09:57:32;;;;;;;13.27;10.80;;;13.50;99.90;;;;;;5070665;28;20205;-84
2022/10/07 10:00:20;;;;;;;11.87;9.43;;;13.60;99.90;;;;;;5072679;28;20256;-83
2022/10/07 10:02:53;;;;;;;13.67;10.67;;;13.70;99.90;;;;;;5071256;28;20180;-83
2022/10/07 10:05:45;;;;;;;11.40;10.20;;;13.80;99.90;;;;;;5071239;28;20177;-82
2022/10/07 10:08:16;;;;;;;13.77;10.27;;;13.80;99.90;;;;;;5071630;28;20209;-82
2022/10/07 10:10:52;;;;;;;11.53;9.73;;;13.70;99.90;;;;;;5071271;28;20654;-82
2022/10/07 10:13:29;;;;;;;11.97;9.87;;;13.70;99.90;;;;;;5071188;28;20175;-82
2022/10/07 10:15:55;;;;;;;15.80;11.17;;;13.80;99.90;;;;;;5071172;28;20197;-83
2022/10/07 10:18:40;;;;;;;11.87;10.03;;;13.90;99.90;;;;;;5072125;28;20215;-83
2022/10/07 10:21:20;;;;;;;20.77;10.33;;;14.00;99.90;;;;;;5072192;28;20244;-82
2022/10/07 10:23:49;;;;;;;12.20;9.50;;;14.00;99.90;;;;;;5071691;28;20157;-83
2022/10/07 10:26:29;;;;;;;18.80;10.07;;;14.00;99.90;;;;;;5072166;28;20189;-83
2022/10/07 10:29:04;;;;;;;11.53;9.10;;;14.00;99.90;;;;;;5063373;28;20194;-84
2022/10/07 10:32:00;;;;;;;11.87;9.10;;;14.00;99.90;;;;;;5058709;28;20263;-83
2022/10/07 10:34:34;;;;;;;15.63;9.70;;;14.10;99.90;;;;;;5060738;28;20158;-82
2022/10/07 10:37:20;;;;;;;10.87;9.30;;;14.20;99.90;;;;;;5059280;28;20259;-84
2022/10/07 10:40:00;;;;;;;11.17;8.60;;;14.40;99.90;;;;;;5061015;28;20529;-84
2022/10/07 10:42:37;;;;;;;11.90;8.60;;;14.80;99.90;;;;;;5060775;28;20650;-84
2022/10/07 10:45:26;;;;;;;10.00;8.47;;;15.10;99.90;;;;;;5060124;28;20177;-84
2022/10/07 10:47:59;;;;;;;9.93;8.30;;;15.30;99.90;;;;;;5058361;28;20166;-83
2022/10/07 10:50:36;;;;;;;11.20;8.43;;;15.50;99.90;;;;;;5062135;28;20666;-82
2022/10/07 10:53:08;;;;;;;12.50;7.97;;;16.10;99.90;;;;;;5061856;28;20200;-84
2022/10/07 10:56:01;;;;;;;8.90;7.70;;;16.70;99.90;;;;;;5060157;28;20198;-85
2022/10/07 10:58:46;;;;;;;15.93;7.10;;;16.90;99.90;;;;;;5060911;28;20190;-83
2022/10/07 11:01:29;;;;;;;9.53;7.60;;;16.90;99.90;;;;;;5063152;28;20217;-82
2022/10/07 11:04:13;;;;;;;8.73;7.30;;;17.20;99.90;;;;;;5062719;28;20189;-84
2022/10/07 11:06:43;;;;;;;8.00;7.20;;;18.50;99.90;;;;;;5064846;28;20274;-81
2022/10/07 11:09:20;;;;;;;8.57;6.70;;;19.50;99.90;;;;;;5061218;28;20183;-84
2022/10/07 11:11:47;;;;;;;7.67;6.97;;;20.40;99.90;;;;;;5060700;28;20162;-85
2022/10/07 11:14:17;;;;;;;7.97;6.63;;;21.20;99.90;;;;;;5059402;28;20189;-85
2022/10/07 11:16:45;;;;;;;8.73;6.37;;;21.30;99.90;;;;;;5061819;28;20217;-84
2022/10/07 11:19:25;;;;;;;7.83;7.03;;;21.50;99.90;;;;;;5061934;28;20190;-85
2022/10/07 11:21:53;;;;;;;8.60;6.40;;;22.30;99.90;;;;;;5061982;28;20529;-85
2022/10/07 11:24:33;;;;;;;6.80;5.97;;;22.20;99.90;;;;;;5063429;28;20521;-85
2022/10/07 11:27:10;;;;;;;9.17;5.83;;;22.00;99.90;;;;;;5062568;28;20261;-85
2022/10/07 11:29:40;;;;;;;10.90;5.70;;;22.20;99.90;;;;;;5063264;28;20284;-86
2022/10/07 11:32:21;;;;;;;7.30;6.13;;;22.60;99.90;;;;;;5062094;28;20186;-85
2022/10/07 11:35:24;;;;;;;7.03;6.03;;;22.90;99.90;;;;;;5062779;28;20169;-84
2022/10/07 11:38:09;;;;;;;7.10;6.40;;;23.00;99.90;;;;;;5063049;28;20193;-83
2022/10/07 11:40:43;;;;;;;6.80;5.93;;;22.20;99.90;;;;;;5060160;28;20643;-84
2022/10/07 11:43:37;;;;;;;7.23;6.20;;;21.10;99.90;;;;;;5060923;28;20185;-84
2022/10/07 11:46:06;;;;;;;5.93;5.33;;;19.90;99.90;;;;;;5060778;28;20235;-84
2022/10/07 11:48:42;;;;;;;8.40;5.97;;;19.80;99.90;;;;;;5061575;28;20169;-84
2022/10/07 11:51:19;;;;;;;6.37;5.70;;;19.40;99.90;;;;;;5061509;28;20185;-86
2022/10/07 11:53:44;;;;;;;11.17;6.20;;;19.10;99.90;;;;;;5063642;28;20191;-86
2022/10/07 11:56:20;;;;;;;7.23;6.23;;;18.80;99.90;;;;;;5062654;28;20223;-84
2022/10/07 11:58:59;;;;;;;6.20;5.60;;;18.70;99.90;;;;;;5060684;28;20177;-84
2022/10/07 12:01:25;;;;;;;6.83;6.13;;;18.50;99.90;;;;;;5061173;28;20170;-82
2022/10/07 12:04:23;;;;;;;7.63;6.27;;;18.40;99.90;;;;;;5061470;28;20175;-84
2022/10/07 12:07:27;;;;;;;11.00;6.43;;;19.20;99.90;;;;;;5059973;28;20560;-84
2022/10/07 12:10:02;;;;;;;8.13;6.87;;;;;;;;;;5060402;28;20204;-82
2022/10/07 12:12:44;;;;;;;7.97;6.60;;;21.90;99.90;;;;;;5059083;28;20651;-82
2022/10/07 12:15:41;;;;;;;7.10;6.07;;;23.20;99.90;;;;;;5058733;28;20184;-82
2022/10/07 12:18:06;;;;;;;8.23;6.80;;;23.70;99.90;;;;;;5059385;28;20226;-81
2022/10/07 12:20:53;;;;;;;9.27;6.17;;;23.60;99.90;;;;;;5061113;28;20199;-81
2022/10/07 12:23:21;;;;;;;7.83;5.90;;;23.40;99.90;;;;;;5061980;28;20193;-84
2022/10/07 12:25:47;;;;;;;9.90;5.90;;;24.00;99.90;;;;;;5061867;28;20201;-84
2022/10/07 12:28:25;;;;;;;9.70;5.53;;;24.40;99.90;;;;;;5064470;28;20252;-83
2022/10/07 12:30:56;;;;;;;8.97;5.90;;;23.30;99.90;;;;;;5064450;28;20176;-85
2022/10/07 12:33:33;;;;;;;10.87;6.10;;;22.40;99.90;;;;;;5061611;28;20177;-81
2022/10/07 12:36:20;;;;;;;9.07;6.20;;;21.70;99.90;;;;;;5062917;28;20196;-82
2022/10/07 12:39:08;;;;;;;6.90;5.77;;;20.70;99.90;;;;;;5061892;28;20189;-82
2022/10/07 12:41:38;;;;;;;7.07;6.17;;;20.70;99.90;;;;;;5061714;28;20176;-83
2022/10/07 12:44:16;;;;;;;9.23;6.50;;;20.10;99.90;;;;;;5062211;28;20174;-86
2022/10/07 12:47:16;;;;;;;11.47;7.10;;;19.80;99.90;;;;;;5062080;28;20199;-84
2022/10/07 12:49:57;;;;;;;8.00;6.53;;;19.50;99.90;;;;;;5061045;28;20189;-84
2022/10/07 12:52:44;;;;;;;9.53;6.57;;;19.40;99.90;;;;;;5056554;28;20183;-85
2022/10/07 12:55:19;;;;;;;10.70;6.60;;;20.50;99.90;;;;;;5057491;28;20174;-85
2022/10/07 12:57:53;;;;;;;7.37;6.63;;;20.50;99.90;;;;;;5056855;28;20192;-85
2022/10/07 13:00:23;;;;;;;7.50;6.70;;;21.70;99.90;;;;;;5058457;28;20170;-81
2022/10/07 13:03:20;;;;;;;9.00;6.20;;;22.80;99.90;;;;;;5057695;28;20649;-81
2022/10/07 13:06:08;;;;;;;6.90;6.00;;;22.30;99.90;;;;;;5057984;28;20196;-80
2022/10/07 13:09:13;;;;;;;7.30;6.60;;;21.10;99.90;;;;;;5055776;28;20182;-81
2022/10/07 13:12:02;;;;;;;7.03;6.33;;;19.30;99.90;;;;;;5057129;28;20158;-81
2022/10/07 13:14:34;;;;;;;10.17;6.50;;;19.20;99.90;;;;;;5057564;28;20178;-79
2022/10/07 13:17:34;;;;;;;8.67;6.80;;;18.60;99.90;;;;;;5058558;28;20289;-89
2022/10/07 13:20:15;;;;;;;9.23;7.67;;;18.20;99.90;;;;;;5049626;28;20178;-81
2022/10/07 13:22:49;;;;;;;12.53;7.30;;;17.70;99.90;;;;;;5062274;28;20215;-84
2022/10/07 13:25:18;;;;;;;9.23;7.80;;;17.40;99.90;;;;;;5062683;28;20165;-83
2022/10/07 13:28:02;;;;;;;9.67;7.77;;;17.40;99.90;;;;;;5065715;28;20238;-82
2022/10/07 13:30:37;;;;;;;9.60;8.40;;;17.30;99.90;;;;;;5074043;28;20193;-81
2022/10/07 13:33:25;;;;;;;9.13;8.00;;;17.10;99.90;;;;;;5073800;28;20207;-83
2022/10/07 13:36:06;;;;;;;10.23;9.07;;;17.00;99.90;;;;;;5066694;28;20208;-81
2022/10/07 13:38:32;;;;;;;10.43;8.37;;;17.00;99.90;;;;;;5061979;28;20215;-84
2022/10/07 13:41:21;;;;;;;9.27;7.70;;;17.10;99.90;;;;;;5060742;28;20181;-83
2022/10/07 13:43:53;;;;;;;10.20;9.17;;;17.10;99.90;;;;;;5060600;28;20567;-83
2022/10/07 13:46:24;;;;;;;9.93;7.53;;;17.10;99.90;;;;;;5059514;28;20207;-81
2022/10/07 13:48:50;;;;;;;13.07;8.87;;;17.10;99.90;;;;;;5060649;28;20217;-83
2022/10/07 13:51:33;;;;;;;11.43;8.87;;;17.30;99.90;;;;;;5060305;28;20210;-80
2022/10/07 13:54:03;;;;;;;11.73;9.07;;;17.40;99.90;;;;;;5059527;28;20222;-82
2022/10/07 13:56:31;;;;;;;12.40;9.00;;;17.50;99.90;;;;;;5058340;28;20700;-82
2022/10/07 13:58:57;;;;;;;16.93;9.37;;;17.30;99.90;;;;;;5060155;28;20633;-84
2022/10/07 14:01:26;;;;;;;12.50;10.40;;;17.20;99.90;;;;;;5058670;28;20201;-81
2022/10/07 14:04:30;;;;;;;12.03;8.77;;;16.90;99.90;;;;;;5061732;28;20171;-82
2022/10/07 14:07:15;;;;;;;14.80;9.40;;;16.90;99.90;;;;;;5059744;28;20214;-82
2022/10/07 14:09:47;;;;;;;13.20;9.20;;;16.70;99.90;;;;;;5064263;28;20571;-84
2022/10/07 14:12:24;;;;;;;11.13;9.57;;;16.60;99.90;;;;;;5064216;28;20189;-83
2022/10/07 14:14:54;;;;;;;13.33;9.63;;;16.40;99.90;;;;;;5064088;28;20192;-83
2022/10/07 14:17:48;;;;;;;11.67;9.20;;;16.30;99.90;;;;;;5062651;28;20219;-83
2022/10/07 14:20:47;;;;;;;12.23;9.53;;;16.20;99.90;;;;;;5063337;28;20228;-83
2022/10/07 14:23:18;;;;;;;15.40;9.53;;;16.10;99.90;;;;;;5059536;28;20201;-84
2022/10/07 14:25:47;;;;;;;17.23;10.40;;;16.00;99.90;;;;;;5062444;28;20288;-83
2022/10/07 14:28:28;;;;;;;13.37;10.43;;;15.90;99.90;;;;;;5061620;28;20529;-84
2022/10/07 14:37:09;;;;;;;16.43;11.50;;;15.80;99.90;;;;;;5062545;28;20234;-86
2022/10/07 14:39:49;;;;;;;13.60;10.67;;;15.60;99.90;;;;;;5058672;28;20274;-85
2022/10/07 14:42:21;;;;;;;14.20;10.67;;;15.50;99.90;;;;;;5059333;28;20168;-85
2022/10/07 14:44:47;;;;;;;19.80;11.57;;;15.50;99.90;;;;;;5058482;28;20230;-85
2022/10/07 14:47:23;;;;;;;19.87;11.63;;;15.50;99.90;;;;;;5058479;28;20203;-84
2022/10/07 14:49:51;;;;;;;11.83;10.60;;;15.40;99.90;;;;;;5058760;28;20619;-82
2022/10/07 14:52:27;;;;;;;13.70;10.97;;;15.30;99.90;;;;;;5058747;28;20183;-85
2022/10/07 14:55:06;;;;;;;12.13;10.33;;;15.30;99.90;;;;;;5060155;28;20163;-85
2022/10/07 14:57:32;;;;;;;17.43;11.43;;;15.10;99.90;;;;;;5058602;28;20205;-87
2022/10/07 14:59:58;;;;;;;16.87;11.23;;;15.00;99.90;;;;;;5057921;28;20577;-85
2022/10/07 15:02:25;;;;;;;14.93;12.20;;;;;;;;;;5059149;28;20197;-87
2022/10/07 15:04:51;;;;;;;19.93;11.30;;;;;;;;;;5056925;28;20189;-86
2022/10/07 15:07:17;;;;;;;14.43;10.93;;;15.00;99.90;;;;;;5056411;28;20292;-85
2022/10/07 15:09:44;;;;;;;12.20;10.10;;;15.00;99.90;;;;;;5060305;28;20187;-85
2022/10/07 15:12:11;;;;;;;12.90;9.93;;;15.00;99.90;;;;;;5057882;28;20545;-85
2022/10/07 15:14:36;;;;;;;18.40;11.03;;;15.00;99.90;;;;;;5059081;28;20234;-85
2022/10/07 15:17:02;;;;;;;13.47;10.47;;;15.10;99.90;;;;;;5057069;28;20249;-85
2022/10/07 15:19:28;;;;;;;16.03;10.93;;;15.10;99.90;;;;;;5058811;28;20648;-85
2022/10/07 15:21:55;;;;;;;17.23;11.47;;;15.00;99.90;;;;;;5057812;28;20177;-84
2022/10/07 15:24:21;;;;;;;11.87;10.60;;;;;;;;;;5059326;28;20171;-85
2022/10/07 15:26:47;;;;;;;13.10;10.47;;;14.90;99.90;;;;;;5057328;28;20202;-85
2022/10/07 15:29:14;;;;;;;13.63;11.10;;;14.90;99.90;;;;;;5057814;28;20193;-85
2022/10/07 15:31:41;;;;;;;13.03;11.43;;;14.90;99.90;;;;;;5057317;28;20245;-84
2022/10/07 15:34:08;;;;;;;14.43;12.50;;;14.80;99.90;;;;;;5057536;28;20180;-85
2022/10/07 15:36:34;;;;;;;13.03;11.00;;;14.80;99.90;;;;;;5057211;28;20215;-84
2022/10/07 15:39:00;;;;;;;13.20;11.67;;;14.70;99.90;;;;;;5057965;28;20641;-85
2022/10/07 15:41:37;;;;;;;15.23;11.27;;;14.80;99.90;;;;;;5058194;28;20202;-84
2022/10/07 15:44:15;;;;;;;12.83;11.17;;;14.80;99.90;;;;;;5058300;28;20160;-85
2022/10/07 15:46:41;;;;;;;15.30;11.57;;;14.80;99.90;;;;;;5057757;28;20201;-84
2022/10/07 15:49:07;;;;;;;14.33;11.13;;;14.80;99.90;;;;;;5057046;28;20273;-84
2022/10/07 15:51:36;;;;;;;13.10;11.30;;;14.80;99.90;;;;;;5056922;28;20217;-86
2022/10/07 15:54:04;;;;;;;12.67;11.00;;;14.70;99.90;;;;;;5057012;28;20206;-84
2022/10/07 15:56:29;;;;;;;19.43;12.63;;;14.70;99.90;;;;;;5057016;28;20212;-84
2022/10/07 15:58:57;;;;;;;19.10;11.03;;;14.70;99.90;;;;;;5057642;28;20182;-83
2022/10/07 16:01:26;;;;;;;14.17;12.40;;;14.60;99.90;;;;;;5058303;28;20221;-84
2022/10/07 16:03:51;;;;;;;16.43;11.33;;;14.50;99.90;;;;;;5058206;28;20174;-85
2022/10/07 16:06:23;;;;;;;16.53;12.20;;;14.50;99.90;;;;;;5056387;28;20199;-84
2022/10/07 16:08:50;;;;;;;14.83;12.00;;;14.50;99.90;;;;;;5056187;28;20170;-85
2022/10/07 16:11:16;;;;;;;15.00;11.17;;;14.40;99.90;;;;;;5057541;28;20205;-84
2022/10/07 16:13:43;;;;;;;13.80;11.40;;;14.40;99.90;;;;;;5057024;28;20180;-85
2022/10/07 16:16:17;;;;;;;16.83;12.33;;;14.40;99.90;;;;;;5058547;28;20197;-85
2022/10/07 16:18:45;;;;;;;17.57;12.50;;;14.40;99.90;;;;;;5057297;28;20225;-86
2022/10/07 16:21:23;;;;;;;15.73;12.40;;;14.40;99.90;;;;;;5056906;28;20738;-85
2022/10/07 16:23:56;;;;;;;13.73;12.20;;;14.40;99.90;;;;;;5058414;28;20167;-85
2022/10/07 16:26:25;;;;;;;20.53;11.70;;;14.40;99.90;;;;;;5056229;28;20217;-85
2022/10/07 16:31:39;;;;;;;15.30;12.73;;;14.30;99.90;;;;;;5057590;28;20639;-84
2022/10/07 16:34:05;;;;;;;18.67;14.17;;;14.30;99.90;;;;;;5057071;28;20192;-86
2022/10/07 16:36:34;;;;;;;18.07;13.20;;;14.10;99.90;;;;;;5056750;28;20217;-86
2022/10/07 16:39:02;;;;;;;17.67;12.80;;;14.00;99.90;;;;;;5055964;28;20224;-85
2022/10/07 16:41:29;;;;;;;24.47;17.90;;;14.00;99.90;;;;;;5056089;28;20256;-86
2022/10/07 16:43:56;;;;;;;69.43;50.60;;;13.90;99.90;;;;;;5057272;28;20258;-85
2022/10/07 16:46:22;;;;;;;57.10;41.40;;;13.80;99.90;;;;;;5056028;28;20250;-86
2022/10/07 16:48:49;;;;;;;29.50;21.47;;;13.80;99.90;;;;;;5055277;28;20178;-84
2022/10/07 16:51:24;;;;;;;28.17;21.43;;;13.70;99.90;;;;;;5056065;28;20188;-85
2022/10/07 16:53:54;;;;;;;24.93;18.60;;;13.60;99.90;;;;;;5052638;28;20253;-85
2022/10/07 16:56:21;;;;;;;24.37;16.60;;;13.60;99.90;;;;;;5037022;28;20197;-84
2022/10/07 16:58:53;;;;;;;21.63;16.57;;;13.50;99.90;;;;;;5053484;28;20178;-85
2022/10/07 17:01:20;;;;;;;19.30;15.20;;;13.40;99.90;;;;;;5037913;28;20159;-84
2022/10/07 17:03:45;;;;;;;16.60;13.10;;;13.40;99.90;;;;;;5037055;28;20175;-85
2022/10/07 17:06:17;;;;;;;18.73;13.87;;;13.30;99.90;;;;;;5039626;28;20209;-84
2022/10/07 17:08:43;;;;;;;18.70;14.67;;;13.30;99.90;;;;;;5037266;28;20178;-85
2022/10/07 17:11:27;;;;;;;20.57;14.57;;;13.20;99.90;;;;;;5037566;28;20174;-85
2022/10/07 17:13:59;;;;;;;19.27;15.40;;;13.10;99.90;;;;;;5037728;28;20177;-83
2022/10/07 17:16:26;;;;;;;27.13;18.50;;;13.00;99.90;;;;;;5037796;28;20641;-84
2022/10/07 17:18:52;;;;;;;26.50;19.33;;;13.00;99.90;;;;;;5037654;28;20269;-86
2022/10/07 17:21:18;;;;;;;27.47;18.53;;;13.00;99.90;;;;;;5037755;28;20387;-84
2022/10/07 17:23:47;;;;;;;23.73;18.70;;;12.90;99.90;;;;;;5037254;28;20177;-85
2022/10/07 17:26:14;;;;;;;21.83;18.93;;;12.90;99.90;;;;;;5038207;28;20190;-85
2022/10/07 17:28:40;;;;;;;23.60;18.90;;;12.80;99.90;;;;;;5038700;28;20260;-86
2022/10/07 17:31:08;;;;;;;22.23;18.20;;;12.80;99.90;;;;;;5037955;28;20177;-84
2022/10/07 17:33:34;;;;;;;31.07;18.43;;;12.70;99.90;;;;;;5037890;28;20174;-85
2022/10/07 17:36:06;;;;;;;24.00;17.80;;;12.70;99.90;;;;;;5037966;28;20248;-85
2022/10/07 17:38:39;;;;;;;25.00;18.50;;;12.60;99.90;;;;;;5039465;28;20255;-85
2022/10/07 17:41:25;;;;;;;24.83;18.67;;;12.60;99.90;;;;;;5043825;28;20174;-84
2022/10/07 17:43:54;;;;;;;23.43;18.30;;;12.50;99.90;;;;;;5041868;28;20178;-84
2022/10/07 17:46:22;;;;;;;22.63;17.43;;;12.50;99.90;;;;;;5041633;28;20198;-85
2022/10/07 17:48:50;;;;;;;22.43;18.03;;;12.40;99.90;;;;;;5043001;28;20190;-85
2022/10/07 17:51:17;;;;;;;23.57;18.23;;;12.40;99.90;;;;;;5042223;28;20198;-86
2022/10/07 17:53:44;;;;;;;23.60;19.20;;;12.40;99.90;;;;;;5042289;28;20209;-84
2022/10/07 17:56:14;;;;;;;33.43;23.30;;;12.30;99.90;;;;;;5041810;28;20198;-85
2022/10/07 17:58:43;;;;;;;35.23;25.83;;;12.20;99.90;;;;;;5042681;28;20628;-84
2022/10/07 18:01:19;;;;;;;39.43;28.50;;;12.20;99.90;;;;;;5042039;28;20261;-85
2022/10/07 18:04:09;;;;;;;37.07;27.50;;;12.10;99.90;;;;;;5042687;28;20177;-84
2022/10/07 18:06:37;;;;;;;39.47;27.00;;;12.10;99.90;;;;;;5042891;28;20705;-85
2022/10/07 18:09:07;;;;;;;36.30;25.43;;;12.00;99.90;;;;;;5040899;28;20265;-85
2022/10/07 18:17:02;;;;;;;30.87;21.37;;;11.90;99.90;;;;;;5042690;28;20303;-84
2022/10/07 18:19:28;;;;;;;28.23;20.80;;;11.80;99.90;;;;;;5042404;28;20219;-83
2022/10/07 18:21:57;;;;;;;33.60;22.20;;;11.80;99.90;;;;;;5040006;28;20640;-83
2022/10/07 18:24:27;;;;;;;32.03;21.67;;;11.80;99.90;;;;;;5042747;28;20222;-85
2022/10/07 18:26:58;;;;;;;28.87;21.10;;;11.70;99.90;;;;;;5041076;28;20248;-85
2022/10/07 18:29:27;;;;;;;28.47;20.83;;;11.70;99.90;;;;;;5041729;28;20241;-86
2022/10/07 18:31:52;;;;;;;28.03;21.00;;;11.60;99.90;;;;;;5040164;28;20716;-84
2022/10/07 18:34:18;;;;;;;27.73;19.57;;;11.60;99.90;;;;;;5039915;28;20205;-83
2022/10/07 18:36:45;;;;;;;30.67;22.57;;;11.60;99.90;;;;;;5040383;28;20202;-85
2022/10/07 18:39:12;;;;;;;34.87;24.00;;;11.50;99.90;;;;;;5039515;28;20186;-84
2022/10/07 18:41:38;;;;;;;28.83;20.63;;;11.50;99.90;;;;;;5041314;28;20186;-85
2022/10/07 18:44:04;;;;;;;43.97;28.60;;;11.50;99.90;;;;;;5040997;28;20198;-83
2022/10/07 18:46:30;;;;;;;29.70;22.27;;;11.40;99.90;;;;;;5041259;28;20186;-83
2022/10/07 18:48:56;;;;;;;30.90;21.67;;;11.40;99.90;;;;;;5040798;28;20185;-83
2022/10/07 18:51:22;;;;;;;26.97;20.30;;;11.40;99.90;;;;;;5040166;28;20172;-84
2022/10/07 18:53:47;;;;;;;29.93;20.97;;;11.30;99.90;;;;;;5040014;28;20170;-85
2022/10/07 18:56:18;;;;;;;32.10;23.13;;;11.30;99.90;;;;;;5040857;28;21203;-84
2022/10/07 18:58:47;;;;;;;26.10;19.13;;;11.20;99.90;;;;;;5041997;28;20186;-85
2022/10/07 19:01:22;;;;;;;25.93;19.03;;;11.20;99.90;;;;;;5040673;28;20174;-84
2022/10/07 19:03:52;;;;;;;29.60;22.13;;;11.20;99.90;;;;;;5040560;28;20198;-85
2022/10/07 19:06:20;;;;;;;28.10;20.03;;;11.10;99.90;;;;;;5041464;28;20680;-84
2022/10/07 19:08:46;;;;;;;28.50;21.27;;;11.00;99.90;;;;;;5043486;28;20220;-84
2022/10/07 19:11:16;;;;;;;31.90;22.10;;;10.90;99.90;;;;;;5042148;28;20182;-83
2022/10/07 19:13:46;;;;;;;31.57;22.93;;;10.90;99.90;;;;;;5040042;28;20642;-84
2022/10/07 19:16:15;;;;;;;31.23;22.77;;;10.90;99.90;;;;;;5039045;28;20615;-84
2022/10/07 19:18:42;;;;;;;29.57;22.67;;;10.90;99.90;;;;;;5040455;28;20190;-84
2022/10/07 19:21:08;;;;;;;33.23;23.47;;;10.90;99.90;;;;;;5038612;28;20224;-85
2022/10/07 19:23:34;;;;;;;35.50;24.27;;;10.90;99.90;;;;;;5040659;28;20224;-84
2022/10/07 19:26:00;;;;;;;33.40;24.00;;;10.90;99.90;;;;;;5039572;28;20193;-84
2022/10/07 19:28:27;;;;;;;34.97;23.37;;;10.90;99.90;;;;;;5040701;28;20576;-83
2022/10/07 19:30:53;;;;;;;31.63;23.00;;;10.90;99.90;;;;;;5038990;28;20657;-84
2022/10/07 19:33:20;;;;;;;34.60;22.60;;;10.90;99.90;;;;;;5040270;28;20213;-83
2022/10/07 19:35:53;;;;;;;32.60;22.17;;;10.80;99.90;;;;;;5040455;28;20667;-84
2022/10/07 19:38:19;;;;;;;30.27;23.17;;;10.90;99.90;;;;;;5039128;28;20206;-82
2022/10/07 19:40:45;;;;;;;32.03;22.13;;;10.90;99.90;;;;;;5038958;28;20578;-83
2022/10/07 19:43:11;;;;;;;29.40;21.43;;;10.80;99.90;;;;;;5039885;28;20224;-83
2022/10/07 19:45:38;;;;;;;32.90;21.67;;;10.70;99.90;;;;;;5041193;28;20672;-83
2022/10/07 19:48:05;;;;;;;29.73;21.87;;;10.70;99.90;;;;;;5037982;28;20174;-84
2022/10/07 19:50:32;;;;;;;28.80;22.43;;;10.70;99.90;;;;;;5038512;28;20184;-84
2022/10/07 19:52:58;;;;;;;31.27;22.00;;;10.60;99.90;;;;;;5038109;28;20183;-82
2022/10/07 19:55:27;;;;;;;33.93;22.47;;;10.60;99.90;;;;;;5038559;28;20189;-83
2022/10/07 19:57:57;;;;;;;33.03;22.63;;;10.60;99.90;;;;;;5038292;28;20205;-83
2022/10/07 20:00:25;;;;;;;39.93;23.77;;;10.60;99.90;;;;;;5038264;28;20202;-83
2022/10/07 20:02:55;;;;;;;42.73;24.10;;;10.60;99.90;;;;;;5036942;28;20188;-84
2022/10/07 20:05:28;;;;;;;51.07;25.13;;;10.60;99.90;;;;;;5038328;28;20173;-84